Time;durP1;ratioP1;P1;durP2;ratioP2;P2;SDS_P1;SDS_P2;PMS_P1;PMS_P2;Temp;Humidity;BMP_temperature;BMP_pressure;BME280_temperature;BME280_humidity;BME280_pressure;Samples;Min_cycle;Max_cycle;Signal;HPM_P1;HPM_P2
2022/01/28 00:01:16;;;;;;;8.30;6.53;;;;;;;1.81;62.24;94000.41;1661797;84;20970;-48
2022/01/28 00:03:42;;;;;;;12.95;8.53;;;;;;;1.82;62.13;93993.81;1657307;85;21233;-49
2022/01/28 00:06:09;;;;;;;10.15;7.30;;;;;;;1.81;62.25;93986.86;1654321;85;21063;-48
2022/01/28 00:08:36;;;;;;;14.98;10.38;;;;;;;1.82;62.34;93991.10;1651875;83;21037;-47
2022/01/28 00:11:04;;;;;;;9.85;6.35;;;;;;;1.84;62.65;93984.67;1638411;85;21079;-48
2022/01/28 00:13:35;;;;;;;5.40;4.90;;;;;;;1.89;62.25;93994.48;1652129;85;21502;-48
2022/01/28 00:38:03;;;;;;;5.30;4.83;;;;;;;2.15;61.60;93992.92;1651519;84;21122;-46
2022/01/28 00:40:16;;;;;;;5.47;4.22;;;;;;;2.26;60.13;93996.22;1616225;86;21526;-48
2022/01/28 00:42:43;;;;;;;8.15;7.33;;;;;;;2.28;59.97;94004.13;1649755;86;21256;-48
2022/01/28 00:45:10;;;;;;;11.03;9.95;;;;;;;2.20;59.95;93993.80;1641932;86;21032;-47
2022/01/28 00:47:38;;;;;;;7.08;5.60;;;;;;;2.16;60.04;93996.56;1638149;85;21065;-48
2022/01/28 00:50:06;;;;;;;6.25;5.65;;;;;;;2.15;59.57;93987.50;1646613;85;21065;-49
2022/01/28 00:52:34;;;;;;;6.08;5.08;;;;;;;2.18;59.84;93990.73;1641946;84;21124;-48
2022/01/28 00:55:01;;;;;;;4.90;4.35;;;;;;;2.12;60.13;93985.01;1644077;84;21796;-48
2022/01/28 00:57:29;;;;;;;5.00;4.60;;;;;;;2.13;60.19;93987.14;1653212;86;21363;-48
2022/01/28 00:59:56;;;;;;;5.25;4.85;;;;;;;2.09;60.21;93987.77;1658603;85;21560;-48
2022/01/28 01:02:23;;;;;;;12.33;11.12;;;;;;;2.03;60.34;93993.49;1659468;84;21015;-48
2022/01/28 01:04:50;;;;;;;6.78;6.22;;;;;;;1.99;60.04;93994.14;1639902;84;21018;-48
2022/01/28 01:07:18;;;;;;;5.67;5.22;;;;;;;1.97;60.17;93997.85;1615097;87;21510;-48
2022/01/28 01:09:46;;;;;;;5.58;5.08;;;;;;;1.96;60.37;93994.36;1659153;85;21081;-48
2022/01/28 01:12:17;;;;;;;5.72;5.20;;;;;;;1.98;60.48;93996.07;1659622;84;21015;-49
2022/01/28 01:14:42;;;;;;;6.17;5.55;;;;;;;1.91;60.56;93996.19;1631359;84;21011;-48
2022/01/28 01:17:26;;;;;;;5.65;5.08;;;;;;;1.86;60.94;93995.87;1661036;85;21070;-49
2022/01/28 01:19:43;;;;;;;6.87;5.58;;;;;;;1.79;61.15;94002.77;1635980;86;21184;-48
2022/01/28 01:22:09;;;;;;;5.20;4.75;;;;;;;1.74;61.43;93996.45;1641007;86;21025;-48
2022/01/28 01:24:47;;;;;;;5.35;4.85;;;;;;;1.82;61.37;94000.59;1602486;89;21155;-53
2022/01/28 01:27:06;;;;;;;7.08;5.20;;;;;;;1.93;61.25;93998.50;1660350;84;21125;-48
2022/01/28 01:29:33;;;;;;;6.67;5.47;;;;;;;2.00;61.11;93997.03;1648297;85;21507;-48
2022/01/28 01:32:03;;;;;;;9.58;7.12;;;;;;;1.97;61.12;93995.14;1617989;86;21160;-47
2022/01/28 01:34:29;;;;;;;11.08;7.15;;;;;;;2.04;61.19;93993.66;1626029;86;21042;-47
2022/01/28 01:36:56;;;;;;;6.33;5.67;;;;;;;2.15;60.93;93987.50;1630307;86;21156;-49
2022/01/28 01:39:26;;;;;;;7.47;6.20;;;;;;;2.23;60.74;93988.91;1649141;86;20994;-49
2022/01/28 01:42:06;;;;;;;10.28;7.00;;;;;;;2.32;60.63;93981.02;1655855;85;20966;-49
2022/01/28 01:52:43;;;;;;;20.62;12.88;;;;;;;2.62;60.08;93971.36;1642001;86;20972;-49
2022/01/28 01:55:11;;;;;;;12.90;8.65;;;;;;;2.70;60.02;93971.42;1638474;86;21100;-48
2022/01/28 01:57:38;;;;;;;14.15;9.10;;;;;;;2.69;60.18;93963.11;1638646;86;21168;-48
2022/01/28 02:00:08;;;;;;;13.58;8.88;;;;;;;2.63;60.16;93957.97;1652760;85;21045;-49
2022/01/28 02:02:36;;;;;;;13.40;8.05;;;;;;;2.60;60.52;93952.02;1639971;83;21077;-48
2022/01/28 02:05:04;;;;;;;16.00;9.68;;;;;;;2.63;60.44;93948.46;1653810;85;21179;-49
2022/01/28 02:07:31;;;;;;;22.62;11.73;;;;;;;2.64;60.45;93940.49;1628214;87;21073;-52
2022/01/28 02:09:58;;;;;;;55.80;24.10;;;;;;;2.65;60.75;93943.41;1609712;89;21167;-49
2022/01/28 02:12:25;;;;;;;57.10;26.05;;;;;;;2.64;60.94;93945.34;1610004;88;21578;-48
2022/01/28 02:14:52;;;;;;;76.80;34.58;;;;;;;2.66;61.12;93939.52;1592209;88;21459;-48
2022/01/28 02:17:19;;;;;;;85.62;38.40;;;;;;;2.69;61.17;93933.99;1571842;89;21599;-48
2022/01/28 02:19:47;;;;;;;71.75;35.23;;;;;;;2.69;61.35;93933.24;1610107;88;21539;-48
2022/01/28 02:22:14;;;;;;;49.55;24.67;;;;;;;2.69;61.32;93930.53;1609642;87;21162;-49
2022/01/28 02:24:44;;;;;;;32.73;17.40;;;;;;;2.58;61.43;93940.23;1630480;87;21022;-48
2022/01/28 02:27:12;;;;;;;36.42;18.15;;;;;;;2.48;61.83;93944.49;1628868;87;21067;-48
2022/01/28 02:29:38;;;;;;;47.33;20.43;;;;;;;2.41;61.92;93941.89;1628437;88;21043;-48
2022/01/28 02:32:08;;;;;;;46.20;21.82;;;;;;;2.39;62.26;93936.11;1628423;88;21552;-49
2022/01/28 02:34:38;;;;;;;48.17;21.77;;;;;;;2.46;62.25;93929.97;1628512;88;21259;-48
2022/01/28 02:37:05;;;;;;;47.15;23.05;;;;;;;2.57;62.35;93924.34;1628453;88;21153;-48
2022/01/28 02:39:32;;;;;;;49.20;26.20;;;;;;;2.66;62.16;93925.94;1628581;88;20995;-48
2022/01/28 02:42:15;;;;;;;56.65;29.37;;;;;;;2.67;62.07;93932.89;1598699;88;21577;-47
2022/01/28 02:47:14;;;;;;;92.12;44.03;;;;;;;2.57;62.30;93939.27;1601005;88;21856;-48
2022/01/28 02:49:38;;;;;;;60.48;30.52;;;;;;;2.59;62.39;93939.05;1617225;88;21040;-48
2022/01/28 02:52:08;;;;;;;67.65;31.77;;;;;;;2.64;62.21;93943.20;1617249;88;21067;-48
2022/01/28 02:54:44;;;;;;;58.05;28.30;;;;;;;2.58;62.16;93946.23;1616803;88;21053;-48
2022/01/28 02:57:06;;;;;;;47.67;26.02;;;;;;;2.51;62.29;93953.16;1616159;88;21475;-48
2022/01/28 02:59:33;;;;;;;39.45;23.92;;;;;;;2.46;62.98;93960.40;1617236;87;21205;-48
2022/01/28 03:02:00;;;;;;;47.75;27.05;;;;;;;2.43;63.48;93946.31;1617166;88;21012;-49
2022/01/28 03:06:55;;;;;;;33.42;20.65;;;;;;;2.64;63.23;93935.06;1617000;88;22176;-48
2022/01/28 03:09:22;;;;;;;31.20;18.95;;;;;;;2.68;63.46;93948.00;1617333;88;20979;-48
2022/01/28 03:12:00;;;;;;;39.33;19.48;;;;;;;2.68;63.15;93950.11;1615830;88;21236;-48
2022/01/28 03:14:36;;;;;;;31.45;18.23;;;;;;;2.66;63.38;93951.73;1615925;88;21026;-50
2022/01/28 03:17:05;;;;;;;33.63;18.27;;;;;;;2.62;63.23;93957.21;1615064;88;21090;-47
2022/01/28 03:19:29;;;;;;;30.90;17.15;;;;;;;2.64;63.09;93945.92;1616333;88;21118;-49
2022/01/28 03:21:56;;;;;;;45.25;22.40;;;;;;;2.66;62.99;93941.62;1616991;88;20991;-48
2022/01/28 03:24:25;;;;;;;45.12;23.75;;;;;;;2.73;62.99;93948.27;1617351;88;21282;-48
2022/01/28 03:26:57;;;;;;;50.67;27.62;;;;;;;2.77;63.08;93946.84;1617148;87;21031;-49
2022/01/28 03:29:21;;;;;;;49.83;26.37;;;;;;;2.78;63.26;93958.66;1577359;90;21039;-49
2022/01/28 03:31:48;;;;;;;49.15;27.85;;;;;;;2.88;63.13;93961.00;1600728;88;21050;-50
2022/01/28 03:34:15;;;;;;;60.92;31.10;;;;;;;2.92;62.79;93958.98;1617871;88;21558;-48
2022/01/28 03:36:42;;;;;;;83.35;41.42;;;;;;;2.90;62.82;93961.34;1617627;88;21160;-48
2022/01/28 03:39:11;;;;;;;88.95;45.60;;;;;;;2.91;62.73;93967.70;1617180;87;21416;-47
2022/01/28 03:41:38;;;;;;;77.03;38.20;;;;;;;2.91;62.94;93971.78;1617506;88;21031;-48
2022/01/28 03:44:06;;;;;;;94.77;48.75;;;;;;;2.97;62.80;93966.63;1617332;88;21106;-48
2022/01/28 03:46:33;;;;;;;93.15;48.45;;;;;;;3.03;62.66;93969.06;1617615;87;21467;-49
2022/01/28 03:49:00;;;;;;;108.63;55.12;;;;;;;3.03;62.47;93969.06;1599115;88;21186;-49
2022/01/28 03:51:27;;;;;;;81.37;42.67;;;;;;;2.97;62.70;93959.84;1617200;88;21035;-48
2022/01/28 03:53:55;;;;;;;81.53;41.55;;;;;;;2.97;62.64;93951.70;1617038;88;20975;-47
2022/01/28 03:56:23;;;;;;;81.37;41.55;;;;;;;2.93;62.68;93949.06;1618026;87;21031;-48
2022/01/28 03:58:50;;;;;;;80.95;41.50;;;;;;;2.92;62.82;93947.54;1610447;87;21032;-49
2022/01/28 04:01:23;;;;;;;65.87;35.00;;;;;;;2.89;62.76;93951.67;1591788;89;21189;-49
2022/01/28 04:11:53;;;;;;;35.75;20.88;;;;;;;2.65;63.75;93944.77;1628551;88;20991;-51
2022/01/28 04:14:40;;;;;;;34.35;21.40;;;;;;;2.67;63.98;93945.11;1628468;88;21104;-50
2022/01/28 04:19:35;;;;;;;50.23;26.60;;;;;;;2.68;64.16;93935.78;1628647;88;20998;-48
2022/01/28 04:22:02;;;;;;;74.40;42.60;;;;;;;2.69;64.18;93929.92;1628144;86;21037;-51
2022/01/28 04:24:31;;;;;;;42.95;24.23;;;;;;;2.68;64.35;93929.75;1628458;88;21006;-50
2022/01/28 04:26:58;;;;;;;34.63;20.02;;;;;;;2.73;64.32;93923.08;1628426;88;21163;-49
2022/01/28 04:29:26;;;;;;;41.00;25.20;;;;;;;2.72;64.41;93930.44;1608247;88;21082;-49
2022/01/28 04:31:53;;;;;;;33.38;21.75;;;;;;;2.75;64.65;93934.28;1628490;88;21002;-50
2022/01/28 04:34:22;;;;;;;37.38;22.13;;;;;;;2.80;64.23;93929.14;1628444;88;21006;-51
2022/01/28 04:37:05;;;;;;;48.13;26.33;;;;;;;2.74;64.34;93925.38;1628508;88;20986;-49
2022/01/28 04:41:59;;;;;;;37.20;21.45;;;;;;;2.48;64.69;93910.56;1628323;88;21514;-49
2022/01/28 04:44:23;;;;;;;37.93;23.27;;;;;;;2.33;65.11;93896.47;1627800;88;21022;-49
2022/01/28 04:46:54;;;;;;;45.15;28.40;;;;;;;2.20;65.32;93906.99;1628242;88;21062;-48
2022/01/28 04:49:23;;;;;;;39.00;23.22;;;;;;;2.07;65.63;93893.84;1626540;88;21100;-51
2022/01/28 04:51:58;;;;;;;34.80;20.37;;;;;;;1.93;65.95;93891.39;1627900;88;21175;-50
2022/01/28 04:54:38;;;;;;;38.13;23.47;;;;;;;1.84;66.11;93869.45;1608189;88;21034;-51
2022/01/28 04:57:16;;;;;;;41.35;25.35;;;;;;;1.69;66.36;93884.41;1607510;88;21534;-52
2022/01/28 05:00:26;;;;;;;63.35;33.73;;;;;;;1.56;66.53;93892.95;1625538;86;21135;-51
2022/01/28 05:05:31;;;;;;;42.35;29.40;;;;;;;1.40;66.88;93876.55;1628545;88;21219;-49
2022/01/28 05:07:32;;;;;;;47.45;26.55;;;;;;;1.27;66.96;93877.50;1622933;88;21514;-48
2022/01/28 05:28:28;;;;;;;53.30;30.25;;;;;;;0.39;68.61;93878.65;1628386;88;21030;-49
2022/01/28 05:30:54;;;;;;;54.80;29.95;;;;;;;0.39;68.61;93878.65;1614365;87;21818;-51
2022/01/28 05:33:21;;;;;;;51.63;28.87;;;;;;;0.39;68.56;93882.70;1613322;86;21061;-50
2022/01/28 05:35:48;;;;;;;38.98;23.62;;;;;;;0.40;68.47;93889.65;1595835;87;21131;-48
2022/01/28 05:38:14;;;;;;;34.43;22.05;;;;;;;0.33;67.91;93882.98;1636326;86;21001;-50
2022/01/28 05:40:41;;;;;;;46.18;26.52;;;;;;;0.21;67.98;93880.78;1646546;85;20977;-50
2022/01/28 05:43:08;;;;;;;73.75;39.73;;;;;;;0.15;68.13;93881.05;1637858;87;21139;-50
2022/01/28 05:45:35;;;;;;;110.12;56.80;;;;;;;0.06;67.84;93889.45;1612754;87;21469;-50
2022/01/28 05:48:01;;;;;;;101.20;57.05;;;;;;;-0.12;68.13;93901.01;1644644;86;20991;-49
2022/01/28 05:50:28;;;;;;;82.62;45.90;;;;;;;-0.21;68.52;93902.03;1634274;85;20994;-47
2022/01/28 05:52:55;;;;;;;113.35;58.50;;;;;;;-0.32;68.37;93893.84;1626033;85;21091;-47
2022/01/28 05:55:22;;;;;;;105.32;59.15;;;;;;;-0.43;68.68;93899.94;1625331;87;22361;-48
2022/01/28 05:57:50;;;;;;;111.28;61.10;;;;;;;-0.53;68.86;93898.84;1644308;86;21092;-47
2022/01/28 06:00:18;;;;;;;142.18;72.03;;;;;;;-0.56;69.23;93905.02;1639153;86;21579;-48
2022/01/28 06:02:45;;;;;;;133.85;61.90;;;;;;;-0.52;69.95;93904.44;1635657;86;21056;-54
2022/01/28 06:05:13;;;;;;;116.22;58.30;;;;;;;-0.40;69.94;93912.64;1643393;87;20988;-53
2022/01/28 06:07:44;;;;;;;94.65;50.08;;;;;;;-0.34;69.59;93909.12;1637368;85;21246;-50
2022/01/28 06:10:11;;;;;;;72.45;39.98;;;;;;;-0.27;70.06;93906.91;1636674;87;21549;-49
2022/01/28 06:12:44;;;;;;;66.45;38.08;;;;;;;-0.27;69.45;93889.35;1643449;87;21072;-49
2022/01/28 06:15:10;;;;;;;;;;;;;;;-0.33;69.23;93889.61;1641033;85;21618;-48
2022/01/28 06:17:38;;;;;;;88.20;46.30;;;;;;;-0.33;69.43;93886.91;1645864;85;20266;-48
2022/01/28 06:20:08;;;;;;;42.60;27.98;;;;;;;-0.30;69.05;93887.45;1658989;86;21183;-49
2022/01/28 06:22:41;;;;;;;63.73;35.05;;;;;;;-0.34;68.87;93892.91;1639114;85;20985;-48
2022/01/28 06:25:09;;;;;;;;;;;;;;;-0.35;68.26;93902.75;1599142;87;21083;-47
2022/01/28 06:27:35;;;;;;;130.35;66.07;;;;;;;-0.52;67.90;93895.55;1579513;89;20161;-47
2022/01/28 06:30:05;;;;;;;134.18;67.12;;;;;;;-0.62;68.55;93885.02;1582137;88;20992;-53
2022/01/28 06:32:33;;;;;;;139.37;73.50;;;;;;;-0.59;68.40;93890.21;1634878;86;21102;-53
2022/01/28 06:35:07;;;;;;;165.03;80.53;;;;;;;-0.54;68.43;93912.17;1626287;86;21022;-51
2022/01/28 06:37:41;;;;;;;298.77;134.32;;;;;;;-0.58;68.35;93909.30;1618688;86;21082;-47
2022/01/28 06:40:10;;;;;;;523.30;213.28;;;;;;;-0.53;68.71;93889.40;1634520;86;21103;-49
2022/01/28 06:42:37;;;;;;;224.88;105.72;;;;;;;-0.44;68.23;93899.75;1588986;88;21225;-50
2022/01/28 06:45:06;;;;;;;211.85;100.12;;;;;;;-0.49;68.12;93902.85;1586372;88;21718;-50
2022/01/28 06:47:35;;;;;;;317.10;131.55;;;;;;;-0.53;68.12;93910.22;1595315;88;21549;-52
2022/01/28 06:50:07;;;;;;;258.77;119.60;;;;;;;-0.55;68.46;93908.50;1564684;89;21077;-49
2022/01/28 06:52:34;;;;;;;292.57;135.35;;;;;;;-0.43;68.68;93923.64;1585920;87;21546;-50
2022/01/28 06:55:01;;;;;;;311.48;143.05;;;;;;;-0.31;68.85;93922.39;1586603;88;21054;-49
2022/01/28 06:57:29;;;;;;;297.82;136.50;;;;;;;-0.12;69.01;93921.84;1588122;88;21273;-50
2022/01/28 06:59:57;;;;;;;302.38;137.70;;;;;;;0.07;68.69;93914.70;1586548;88;21841;-49
2022/01/28 07:02:23;;;;;;;279.70;133.45;;;;;;;0.24;68.37;93919.18;1575172;89;21086;-50
2022/01/28 07:04:50;;;;;;;257.18;124.45;;;;;;;0.43;67.87;93934.82;1572724;88;21065;-50
2022/01/28 07:07:19;;;;;;;289.52;138.40;;;;;;;0.55;67.28;93937.62;1591066;88;21122;-55
2022/01/28 07:09:48;;;;;;;349.82;159.70;;;;;;;0.47;66.98;93938.28;1550135;90;21526;-51
2022/01/28 07:12:15;;;;;;;283.13;133.18;;;;;;;0.38;67.22;93946.09;1632571;85;21675;-55
2022/01/28 07:14:42;;;;;;;295.95;134.43;;;;;;;0.38;67.16;93940.68;1647851;85;21065;-50
2022/01/28 07:17:09;;;;;;;263.27;128.75;;;;;;;0.30;66.99;93941.94;1635599;86;21223;-50
2022/01/28 07:19:35;;;;;;;220.45;106.20;;;;;;;0.22;67.12;93940.45;1608955;87;21037;-49
2022/01/28 07:22:06;;;;;;;227.07;114.90;;;;;;;0.28;66.99;93933.45;1643070;85;21124;-49
2022/01/28 07:24:33;;;;;;;263.55;134.40;;;;;;;0.27;67.13;93912.99;1635892;86;21119;-50
2022/01/28 07:27:01;;;;;;;227.60;117.85;;;;;;;0.25;67.41;93915.30;1638121;86;21140;-49
2022/01/28 07:29:32;;;;;;;245.55;129.63;;;;;;;0.20;67.61;93904.94;1605379;87;21053;-48
2022/01/28 07:31:58;;;;;;;249.12;129.87;;;;;;;0.18;68.14;93895.68;1647994;86;21060;-48
2022/01/28 07:34:25;;;;;;;305.62;155.67;;;;;;;0.25;68.86;93892.32;1639089;84;21168;-49
2022/01/28 07:36:52;;;;;;;299.90;154.27;;;;;;;0.35;68.73;93890.67;1636286;85;21138;-50
2022/01/28 07:39:19;;;;;;;431.85;208.28;;;;;;;0.44;69.13;93891.72;1621734;85;21080;-58
2022/01/28 07:41:45;;;;;;;431.95;231.20;;;;;;;0.68;69.31;93883.92;1630118;85;21551;-52
2022/01/28 07:44:12;;;;;;;302.62;154.95;;;;;;;1.03;68.83;93897.01;1631883;85;21026;-50
2022/01/28 07:46:38;;;;;;;259.32;136.40;;;;;;;1.32;68.23;93896.78;1623764;85;21068;-49
2022/01/28 07:49:05;;;;;;;250.03;131.47;;;;;;;1.44;67.35;93904.36;1632391;85;21140;-51
2022/01/28 07:51:35;;;;;;;243.00;125.22;;;;;;;1.40;67.24;93925.32;1639911;86;21021;-51
2022/01/28 07:54:01;;;;;;;191.65;101.50;;;;;;;1.43;67.50;93938.05;1591825;87;21085;-52
2022/01/28 07:56:28;;;;;;;123.02;68.95;;;;;;;1.53;67.66;93941.17;1647805;86;21088;-51
2022/01/28 07:58:54;;;;;;;121.25;73.07;;;;;;;1.69;67.35;93944.64;1593472;87;22650;-52
2022/01/28 08:01:21;;;;;;;119.20;69.05;;;;;;;1.66;67.18;93950.28;1583072;87;21061;-53
2022/01/28 08:03:48;;;;;;;114.47;68.65;;;;;;;1.65;67.25;93948.75;1554650;88;21169;-54
2022/01/28 08:06:15;;;;;;;124.42;73.83;;;;;;;1.61;67.14;93942.63;1622281;86;21042;-51
2022/01/28 08:08:42;;;;;;;110.57;69.42;;;;;;;1.51;67.33;93934.65;1607139;86;21551;-51
2022/01/28 08:11:08;;;;;;;123.10;71.25;;;;;;;1.46;67.85;93941.29;1593833;87;21129;-51
2022/01/28 08:13:35;;;;;;;163.07;97.90;;;;;;;1.51;68.21;93946.23;1591514;87;21047;-50
2022/01/28 08:16:02;;;;;;;183.70;104.10;;;;;;;1.54;68.24;93927.80;1632658;85;21569;-52
2022/01/28 08:18:28;;;;;;;133.60;79.82;;;;;;;1.58;68.22;93933.96;1642317;85;21077;-52
2022/01/28 08:20:55;;;;;;;143.62;85.92;;;;;;;1.65;68.22;93927.07;1638187;85;21105;-48
2022/01/28 08:23:22;;;;;;;157.85;92.50;;;;;;;1.73;68.39;93916.28;1653229;86;21103;-50
2022/01/28 08:25:51;;;;;;;173.90;103.25;;;;;;;1.84;68.55;93917.67;1615733;87;21015;-48
2022/01/28 08:28:16;;;;;;;118.90;74.50;;;;;;;1.99;68.34;93908.71;1600716;88;21122;-51
2022/01/28 08:30:43;;;;;;;124.47;70.78;;;;;;;2.10;68.42;93898.46;1590569;87;21506;-46
2022/01/28 08:33:10;;;;;;;96.30;62.23;;;;;;;2.23;68.47;93894.73;1610845;87;21010;-47
2022/01/28 08:35:39;;;;;;;79.67;48.63;;;;;;;2.36;68.37;93889.45;1596359;87;21139;-47
2022/01/28 08:38:13;;;;;;;62.15;37.78;;;;;;;2.51;68.36;93890.73;1577660;88;21006;-49
2022/01/28 08:40:35;;;;;;;47.98;29.35;;;;;;;2.66;67.80;93890.03;1663021;86;21563;-49
2022/01/28 08:43:02;;;;;;;35.50;24.30;;;;;;;2.82;67.62;93875.75;1613716;86;21279;-51
2022/01/28 08:45:29;;;;;;;31.85;22.37;;;;;;;3.04;67.21;93878.23;1634016;85;21029;-47
2022/01/28 08:47:56;;;;;;;79.12;40.83;;;;;;;3.41;66.75;93884.59;1627770;86;21861;-46
2022/01/28 08:50:22;;;;;;;41.48;24.65;;;;;;;3.78;65.88;93885.66;1626198;86;21458;-49
2022/01/28 08:52:49;;;;;;;42.27;26.50;;;;;;;4.08;64.85;93888.02;1615934;86;21104;-47
2022/01/28 08:55:16;;;;;;;44.58;26.27;;;;;;;4.30;63.94;93881.45;1619978;86;21120;-49
2022/01/28 08:57:43;;;;;;;38.35;22.22;;;;;;;4.46;62.57;93881.42;1628652;86;21526;-52
2022/01/28 09:00:13;;;;;;;25.82;17.75;;;;;;;4.59;60.14;93876.19;1610716;87;21321;-52
2022/01/28 09:02:41;;;;;;;37.13;22.90;;;;;;;4.66;59.61;93874.66;1604590;87;21556;-49
2022/01/28 09:05:09;;;;;;;52.53;28.77;;;;;;;4.80;58.96;93878.34;1585054;87;33085;-50
2022/01/28 09:07:36;;;;;;;49.40;31.27;;;;;;;4.92;59.07;93875.48;1612105;86;21181;-51
2022/01/28 09:10:10;;;;;;;49.13;29.67;;;;;;;5.16;58.70;93881.59;1607423;86;21167;-50
2022/01/28 09:12:39;;;;;;;32.13;20.43;;;;;;;5.52;57.68;93882.08;1636682;85;21158;-49
2022/01/28 09:15:04;;;;;;;21.50;14.33;;;;;;;5.79;56.78;93878.36;1609444;87;21101;-51
2022/01/28 09:17:31;;;;;;;29.23;18.73;;;;;;;6.01;53.98;93871.02;1646727;85;21022;-49
2022/01/28 09:19:57;;;;;;;28.73;18.67;;;;;;;6.33;53.21;93878.95;1630671;85;21107;-49
2022/01/28 09:22:25;;;;;;;35.15;21.87;;;;;;;6.68;52.96;93866.82;1630432;85;21123;-52
2022/01/28 09:24:52;;;;;;;40.17;26.77;;;;;;;7.04;51.72;93863.73;1640460;86;21151;-49
2022/01/28 09:27:19;;;;;;;28.55;19.45;;;;;;;7.52;50.95;93856.28;1570419;89;21019;-48
2022/01/28 09:29:45;;;;;;;16.07;10.68;;;;;;;8.14;48.83;93857.14;1598429;89;21098;-52
2022/01/28 09:32:16;;;;;;;7.70;6.50;;;;;;;8.42;45.05;93849.14;1581172;87;21871;-51
2022/01/28 09:34:44;;;;;;;7.78;5.67;;;;;;;8.26;43.85;93852.16;1618739;86;21073;-52
2022/01/28 09:37:13;;;;;;;11.22;8.03;;;;;;;8.12;43.59;93850.57;1638221;86;21336;-50
2022/01/28 09:39:44;;;;;;;6.85;5.92;;;;;;;7.96;44.11;93841.24;1629529;85;21044;-50
2022/01/28 09:42:16;;;;;;;10.18;6.65;;;;;;;7.66;43.49;93841.45;1605099;87;21536;-51
2022/01/28 09:44:44;;;;;;;6.30;5.65;;;;;;;7.19;44.60;93838.16;1637635;86;21022;-49
2022/01/28 09:47:11;;;;;;;7.30;6.35;;;;;;;6.72;44.96;93834.04;1604702;87;21099;-50
2022/01/28 09:49:41;;;;;;;8.95;7.60;;;;;;;6.55;46.00;93834.05;1585831;88;21148;-50
2022/01/28 09:52:10;;;;;;;8.90;7.15;;;;;;;6.66;45.45;93832.34;1608499;88;21078;-49
2022/01/28 09:54:37;;;;;;;8.90;7.40;;;;;;;6.90;45.75;93833.42;1612615;85;21224;-48
2022/01/28 09:57:06;;;;;;;7.45;6.70;;;;;;;7.19;45.39;93829.95;1613383;87;21076;-50
2022/01/28 09:59:33;;;;;;;12.18;7.83;;;;;;;7.49;44.79;93822.98;1591922;87;21242;-50
2022/01/28 10:02:01;;;;;;;13.62;8.88;;;;;;;7.66;44.16;93827.76;1599943;87;21184;-51
2022/01/28 10:04:30;;;;;;;10.43;8.03;;;;;;;7.61;44.54;93820.73;1624494;86;21122;-48
2022/01/28 10:06:57;;;;;;;9.93;7.22;;;;;;;7.47;44.71;93813.84;1627206;86;21013;-48
2022/01/28 10:09:24;;;;;;;11.33;9.13;;;;;;;7.23;45.05;93815.56;1593847;86;21060;-51
2022/01/28 10:11:53;;;;;;;10.98;8.00;;;;;;;7.00;45.50;93822.10;1630110;85;21021;-51
2022/01/28 10:14:23;;;;;;;8.40;7.08;;;;;;;6.85;46.17;93819.72;1586622;87;21171;-53
2022/01/28 10:17:01;;;;;;;9.73;7.62;;;;;;;6.76;45.93;93821.63;1586574;88;21632;-50
2022/01/28 10:19:38;;;;;;;8.48;6.45;;;;;;;6.63;46.12;93829.11;1578901;89;21153;-49
2022/01/28 10:22:17;;;;;;;9.18;7.40;;;;;;;6.47;46.79;93815.62;1561171;89;21117;-50
2022/01/28 10:24:43;;;;;;;6.53;5.85;;;;;;;6.40;47.27;93818.61;1596467;87;21245;-49
2022/01/28 10:27:10;;;;;;;7.78;6.97;;;;;;;6.32;47.15;93815.97;1592609;87;21115;-49
2022/01/28 10:29:40;;;;;;;9.73;8.73;;;;;;;6.20;47.72;93822.23;1601575;86;21046;-50
2022/01/28 10:32:13;;;;;;;16.40;9.78;;;;;;;6.18;48.01;93823.27;1611970;87;21159;-49
2022/01/28 10:34:46;;;;;;;;;;;;;;;6.19;48.60;93817.35;1609478;87;21058;-51
2022/01/28 10:37:23;;;;;;;12.90;10.30;;;;;;;6.08;48.42;93821.64;1627082;85;20360;-48
2022/01/28 10:39:53;;;;;;;13.10;9.78;;;;;;;5.98;48.11;93816.70;1630076;86;21140;-48
2022/01/28 10:42:52;;;;;;;12.63;11.20;;;;;;;5.96;48.63;93819.73;1640436;86;21121;-51
2022/01/28 10:45:21;;;;;;;11.10;8.53;;;;;;;6.03;48.64;93814.02;1622192;85;21008;-51
2022/01/28 10:47:54;;;;;;;8.35;7.55;;;;;;;6.20;48.51;93807.20;1621481;85;21087;-50
2022/01/28 10:50:37;;;;;;;7.22;6.35;;;;;;;6.35;48.05;93802.80;1637235;84;21137;-50
2022/01/28 10:53:13;;;;;;;13.45;9.50;;;;;;;6.40;47.15;93800.85;1588186;87;21185;-50
2022/01/28 10:55:48;;;;;;;11.78;9.03;;;;;;;6.38;47.26;93792.34;1586419;87;21107;-49
2022/01/28 10:58:17;;;;;;;6.87;6.17;;;;;;;6.52;47.08;93787.75;1606808;86;21110;-56
2022/01/28 11:00:46;;;;;;;10.13;9.00;;;;;;;6.68;46.03;93793.03;1615299;87;21513;-49
2022/01/28 11:03:16;;;;;;;10.68;8.53;;;;;;;6.76;45.99;93787.46;1635588;86;21076;-50
2022/01/28 11:05:46;;;;;;;11.33;8.55;;;;;;;6.71;45.87;93788.79;1610259;88;21172;-51
2022/01/28 11:08:15;;;;;;;10.43;8.70;;;;;;;6.58;46.81;93791.43;1611736;87;21088;-50
2022/01/28 11:10:42;;;;;;;10.30;7.78;;;;;;;6.58;46.80;93788.11;1606587;87;21546;-50
2022/01/28 11:13:09;;;;;;;13.60;9.63;;;;;;;6.53;46.44;93783.81;1602995;87;21098;-50
2022/01/28 11:15:36;;;;;;;11.57;8.58;;;;;;;6.36;46.72;93793.39;1632489;85;21077;-50
2022/01/28 11:18:05;;;;;;;10.70;8.48;;;;;;;6.13;47.09;93792.44;1637637;85;21150;-50
2022/01/28 11:20:43;;;;;;;9.73;7.25;;;;;;;5.94;47.64;93793.48;1610731;86;21726;-51
2022/01/28 11:23:35;;;;;;;10.23;7.87;;;;;;;5.82;47.67;93795.62;1637361;85;21025;-51
2022/01/28 11:26:51;;;;;;;9.75;8.08;;;;;;;5.72;47.62;93800.19;1604936;87;21134;-51
2022/01/28 11:29:21;;;;;;;9.85;8.10;;;;;;;5.54;47.82;93796.48;1610007;86;21086;-49
2022/01/28 11:31:51;;;;;;;11.53;8.58;;;;;;;5.49;47.91;93803.27;1607643;87;21213;-51
2022/01/28 11:34:28;;;;;;;9.23;7.33;;;;;;;5.37;47.96;93789.62;1627946;86;21529;-48
2022/01/28 11:37:05;;;;;;;10.80;8.48;;;;;;;5.19;48.13;93800.30;1601921;87;21108;-50
2022/01/28 11:39:38;;;;;;;11.12;8.70;;;;;;;5.12;48.62;93812.80;1592488;88;22261;-50
2022/01/28 11:42:06;;;;;;;;;;;;;;;5.12;48.90;93812.80;1623228;87;21088;-50
2022/01/28 11:44:54;;;;;;;12.80;9.08;;;;;;;5.07;48.47;93805.16;1619698;87;21153;-50
2022/01/28 11:47:34;;;;;;;19.73;13.48;;;;;;;5.01;48.47;93807.49;1605295;88;20986;-49
2022/01/28 11:50:10;;;;;;;16.12;11.70;;;;;;;4.89;49.07;93818.54;1588996;87;21046;-49
2022/01/28 11:52:51;;;;;;;12.55;9.05;;;;;;;4.88;49.52;93810.20;1636739;86;21028;-49
2022/01/28 11:55:26;;;;;;;16.17;12.53;;;;;;;4.86;49.22;93817.27;1619436;86;21508;-51
2022/01/28 11:58:06;;;;;;;10.45;8.68;;;;;;;4.86;49.63;93810.46;1624807;85;21154;-47
2022/01/28 12:00:44;;;;;;;7.67;6.97;;;;;;;4.93;49.42;93815.11;1613770;87;21108;-48
2022/01/28 12:03:21;;;;;;;11.70;8.33;;;;;;;4.90;49.35;93817.92;1612296;87;21069;-49
2022/01/28 12:05:58;;;;;;;12.82;9.25;;;;;;;4.88;49.94;93813.52;1599055;87;21081;-49
2022/01/28 12:08:30;;;;;;;24.72;13.05;;;;;;;4.89;49.61;93817.77;1633135;86;20998;-54
2022/01/28 12:11:01;;;;;;;16.27;10.05;;;;;;;4.87;49.84;93818.22;1637081;86;21034;-51
2022/01/28 12:13:33;;;;;;;16.82;10.60;;;;;;;4.91;49.81;93814.78;1649025;84;21115;-50
2022/01/28 12:16:04;;;;;;;12.55;9.95;;;;;;;4.96;49.78;93811.52;1628207;85;21585;-49
2022/01/28 12:18:53;;;;;;;16.30;11.25;;;;;;;5.03;49.56;93809.96;1609046;87;21077;-49
2022/01/28 12:21:26;;;;;;;9.75;7.50;;;;;;;5.00;49.66;93810.80;1557710;90;21130;-49
2022/01/28 12:23:55;;;;;;;16.17;10.13;;;;;;;4.98;49.83;93802.30;1601465;88;21330;-49
2022/01/28 12:26:22;;;;;;;23.85;14.83;;;;;;;5.01;49.68;93798.70;1613291;87;21634;-49
2022/01/28 12:28:51;;;;;;;20.57;14.33;;;;;;;5.05;49.84;93802.70;1590976;87;21075;-49
2022/01/28 12:31:23;;;;;;;30.72;17.50;;;;;;;5.07;49.71;93796.98;1646443;86;21072;-49
2022/01/28 12:33:53;;;;;;;26.93;15.98;;;;;;;5.08;49.96;93799.09;1604861;86;21143;-49
2022/01/28 12:36:24;;;;;;;23.38;13.90;;;;;;;5.12;49.83;93796.44;1622416;86;21162;-47
2022/01/28 12:39:00;;;;;;;19.95;10.38;;;;;;;5.15;49.71;93798.91;1635930;86;21056;-49
2022/01/28 12:41:24;;;;;;;11.75;8.20;;;;;;;5.16;49.82;93807.98;1652130;84;21080;-48
2022/01/28 12:43:52;;;;;;;15.43;10.08;;;;;;;5.08;49.75;93814.86;1645457;84;21516;-54
2022/01/28 12:46:18;;;;;;;19.27;10.98;;;;;;;4.98;49.71;93807.00;1623822;86;21021;-52